createdAt,value
2023-04-16T00:00:18.122Z,7.20
2023-04-16T00:02:44.226Z,7.20
2023-04-16T00:05:10.457Z,7.20
2023-04-16T00:07:36.397Z,7.20
2023-04-16T00:10:02.466Z,7.20
2023-04-16T00:12:28.370Z,7.20
2023-04-16T00:14:54.187Z,7.20
2023-04-16T00:17:20.228Z,7.20
2023-04-16T00:19:46.054Z,7.20
2023-04-16T00:22:11.915Z,7.20
2023-04-16T00:24:37.762Z,7.20
2023-04-16T00:27:03.676Z,7.20
2023-04-16T00:29:30.410Z,7.10
2023-04-16T00:31:56.295Z,7.10
2023-04-16T00:34:23.193Z,7.10
2023-04-16T00:36:49.038Z,7.10
2023-04-16T00:39:15.048Z,7.00
2023-04-16T00:41:43.215Z,7.00
2023-04-16T00:44:09.762Z,6.96
2023-04-16T00:46:37.507Z,6.94
2023-04-16T00:49:03.912Z,6.92
2023-04-16T00:51:31.260Z,6.90
2023-04-16T00:53:57.408Z,6.92
2023-04-16T00:56:24.243Z,6.92
2023-04-16T00:58:50.346Z,6.90
2023-04-16T01:01:16.320Z,6.90
2023-04-16T01:03:48.438Z,6.92
2023-04-16T01:06:17.084Z,7.00
2023-04-16T01:08:44.158Z,7.00
2023-04-16T01:11:11.712Z,7.00
2023-04-16T01:13:40.534Z,7.00
2023-04-16T01:16:08.658Z,7.00
2023-04-16T01:18:35.490Z,7.00
2023-04-16T01:21:01.429Z,7.00
2023-04-16T01:23:27.444Z,7.00
2023-04-16T01:25:53.394Z,7.00
2023-04-16T01:28:19.341Z,6.98
2023-04-16T01:30:45.224Z,7.00
2023-04-16T01:33:34.340Z,7.00
2023-04-16T01:36:00.347Z,7.00
2023-04-16T01:38:26.426Z,7.00
2023-04-16T01:40:59.370Z,7.00
2023-04-16T01:43:25.372Z,7.00
2023-04-16T01:46:11.080Z,7.00
2023-04-16T01:48:37.030Z,7.00
2023-04-16T01:51:04.243Z,7.00
2023-04-16T01:53:30.973Z,7.00
2023-04-16T01:55:56.886Z,7.00
2023-04-16T01:58:23.224Z,7.02
2023-04-16T02:00:49.335Z,7.10
2023-04-16T02:03:16.924Z,7.10
2023-04-16T02:05:42.916Z,7.10
2023-04-16T02:08:08.806Z,7.10
2023-04-16T02:10:34.854Z,7.10
2023-04-16T02:13:01.166Z,7.10
2023-04-16T02:15:27.038Z,7.20
2023-04-16T02:17:56.085Z,7.20
2023-04-16T02:20:22.977Z,7.20
2023-04-16T02:22:52.599Z,7.20
2023-04-16T02:25:19.958Z,7.20
2023-04-16T02:27:46.258Z,7.20
2023-04-16T02:30:39.693Z,7.30
2023-04-16T02:33:08.773Z,7.30
2023-04-16T02:35:35.881Z,7.30
2023-04-16T02:38:03.526Z,7.24
2023-04-16T02:40:30.193Z,7.20
2023-04-16T02:42:57.199Z,7.20
2023-04-16T02:45:24.585Z,7.12
2023-04-16T02:47:50.969Z,7.12
2023-04-16T02:50:17.473Z,7.10
2023-04-16T02:52:43.506Z,7.10
2023-04-16T02:55:10.475Z,7.10
2023-04-16T02:57:36.550Z,7.10
2023-04-16T03:00:04.444Z,7.10
2023-04-16T03:02:30.644Z,7.10
2023-04-16T03:04:56.665Z,7.10
2023-04-16T03:07:22.515Z,7.10
2023-04-16T03:09:48.602Z,7.10
2023-04-16T03:12:14.652Z,7.10
2023-04-16T03:14:40.580Z,7.10
2023-04-16T03:17:06.514Z,7.12
2023-04-16T03:19:32.482Z,7.20
2023-04-16T03:21:58.313Z,7.20
2023-04-16T03:24:24.227Z,7.20
2023-04-16T03:26:50.103Z,7.20
2023-04-16T03:29:16.745Z,7.22
2023-04-16T03:31:43.163Z,7.20
2023-04-16T03:34:09.172Z,7.22
2023-04-16T03:36:35.215Z,7.20
2023-04-16T03:39:01.075Z,7.20
2023-04-16T03:41:27.344Z,7.20
2023-04-16T03:43:53.375Z,7.20
2023-04-16T03:46:19.282Z,7.20
2023-04-16T03:48:45.337Z,7.20
2023-04-16T03:51:11.772Z,7.20
2023-04-16T03:53:38.187Z,7.20
2023-04-16T03:56:04.697Z,7.20
2023-04-16T03:58:30.527Z,7.20
2023-04-16T04:00:56.509Z,7.20
2023-04-16T04:03:22.754Z,7.20
2023-04-16T04:05:48.926Z,7.10
2023-04-16T04:08:19.316Z,7.14
2023-04-16T04:10:45.276Z,7.20
2023-04-16T04:13:11.580Z,7.20
2023-04-16T04:15:37.567Z,7.10
2023-04-16T04:18:04.370Z,7.10
2023-04-16T04:20:30.391Z,7.10
2023-04-16T04:22:57.050Z,7.10
2023-04-16T04:25:24.582Z,7.10
2023-04-16T04:27:50.628Z,7.10
2023-04-16T04:30:16.655Z,7.06
2023-04-16T04:32:43.220Z,7.00
2023-04-16T04:35:09.585Z,7.00
2023-04-16T04:37:35.578Z,7.00
2023-04-16T04:40:09.217Z,7.00
2023-04-16T04:42:38.134Z,7.00
2023-04-16T04:45:05.855Z,7.00
2023-04-16T04:47:32.904Z,7.00
2023-04-16T04:49:58.836Z,7.00
2023-04-16T04:52:25.213Z,7.00
2023-04-16T04:54:52.408Z,7.00
2023-04-16T04:57:19.079Z,7.00
2023-04-16T04:59:44.995Z,7.00
2023-04-16T05:02:11.811Z,6.98
2023-04-16T05:04:37.789Z,6.90
2023-04-16T05:07:03.784Z,6.92
2023-04-16T05:09:30.115Z,6.90
2023-04-16T05:11:56.889Z,6.90
2023-04-16T05:14:22.829Z,6.90
2023-04-16T05:16:48.735Z,7.00
2023-04-16T05:19:16.346Z,7.00
2023-04-16T05:21:42.252Z,6.92
2023-04-16T05:24:08.152Z,6.90
2023-04-16T05:26:34.094Z,6.90
2023-04-16T05:29:00.152Z,6.90
2023-04-16T05:31:26.041Z,6.92
2023-04-16T05:33:51.965Z,7.00
2023-04-16T05:36:17.842Z,7.00
2023-04-16T05:38:43.751Z,7.08
2023-04-16T05:41:10.156Z,7.10
2023-04-16T05:43:36.084Z,7.00
2023-04-16T05:46:02.036Z,7.08
2023-04-16T05:48:27.932Z,7.04
2023-04-16T05:50:53.757Z,7.02
2023-04-16T05:53:19.643Z,7.00
2023-04-16T05:55:46.281Z,7.00
2023-04-16T05:58:12.220Z,7.00
2023-04-16T06:00:38.615Z,7.00
2023-04-16T06:03:04.644Z,7.00
2023-04-16T06:05:30.798Z,7.10
2023-04-16T06:07:56.720Z,7.14
2023-04-16T06:10:22.644Z,7.20
2023-04-16T06:12:48.650Z,7.28
2023-04-16T06:15:14.662Z,7.30
2023-04-16T06:17:41.035Z,7.38
2023-04-16T06:20:07.669Z,7.40
2023-04-16T06:22:33.765Z,7.50
2023-04-16T06:25:00.166Z,7.60
2023-04-16T06:27:26.547Z,7.70
2023-04-16T06:29:52.378Z,7.78
2023-04-16T06:32:18.406Z,7.86
2023-04-16T06:34:44.396Z,8.00
2023-04-16T06:37:10.811Z,8.10
2023-04-16T06:39:36.793Z,8.26
2023-04-16T06:42:03.671Z,8.40
2023-04-16T06:44:29.592Z,8.46
2023-04-16T06:46:55.549Z,8.50
2023-04-16T06:49:21.444Z,8.50
2023-04-16T06:51:47.388Z,8.50
2023-04-16T06:54:13.392Z,8.50
2023-04-16T06:56:39.233Z,8.50
2023-04-16T06:59:05.630Z,8.50
2023-04-16T07:01:31.666Z,8.58
2023-04-16T07:03:58.022Z,8.60
2023-04-16T07:06:24.289Z,8.60
2023-04-16T07:08:53.058Z,8.60
2023-04-16T07:11:19.533Z,8.62
2023-04-16T07:13:45.834Z,8.60
2023-04-16T07:16:11.776Z,8.70
2023-04-16T07:18:37.803Z,8.80
2023-04-16T07:21:03.872Z,8.80
2023-04-16T07:23:30.772Z,8.80
2023-04-16T07:25:56.638Z,8.80
2023-04-16T07:28:24.573Z,8.80
2023-04-16T07:30:50.630Z,8.80
2023-04-16T07:33:16.600Z,8.80
2023-04-16T07:35:42.672Z,8.80
2023-04-16T07:38:08.536Z,8.80
2023-04-16T07:40:37.024Z,8.80
2023-04-16T07:43:03.023Z,8.74
2023-04-16T07:45:28.915Z,8.80
2023-04-16T07:47:55.233Z,8.84
2023-04-16T07:50:21.299Z,8.90
2023-04-16T07:52:47.301Z,8.90
2023-04-16T07:55:13.431Z,8.90
2023-04-16T07:57:40.655Z,8.90
2023-04-16T08:00:08.156Z,8.94
2023-04-16T08:02:40.958Z,8.92
2023-04-16T08:05:07.320Z,9.00
2023-04-16T08:07:34.586Z,9.00
2023-04-16T08:10:00.963Z,9.00
2023-04-16T08:12:26.940Z,9.10
2023-04-16T08:14:52.826Z,9.10
2023-04-16T08:17:18.772Z,9.00
2023-04-16T08:19:45.007Z,9.00
2023-04-16T08:22:12.389Z,9.10
2023-04-16T08:24:38.380Z,9.20
2023-04-16T08:27:15.561Z,9.30
2023-04-16T08:29:45.447Z,9.30
2023-04-16T08:32:11.431Z,9.42
2023-04-16T08:34:37.409Z,9.50
2023-04-16T08:37:03.322Z,9.60
2023-04-16T08:39:29.304Z,9.72
2023-04-16T08:41:58.313Z,9.80
2023-04-16T08:44:27.800Z,9.80
2023-04-16T08:46:57.514Z,9.90
2023-04-16T08:49:25.696Z,10.00
2023-04-16T08:51:54.336Z,10.10
2023-04-16T08:54:36.245Z,10.10
2023-04-16T08:57:06.368Z,10.20
2023-04-16T08:59:33.593Z,10.42
2023-04-16T09:02:00.245Z,10.60
2023-04-16T09:04:30.422Z,10.80
2023-04-16T09:06:58.464Z,10.90
2023-04-16T09:09:27.834Z,10.90
2023-04-16T09:11:54.000Z,11.00
2023-04-16T09:14:21.507Z,11.04
2023-04-16T09:16:51.370Z,11.20
2023-04-16T09:19:17.363Z,11.30
2023-04-16T09:21:46.849Z,11.30
2023-04-16T09:24:13.663Z,11.40
2023-04-16T09:26:42.787Z,11.50
2023-04-16T09:29:09.184Z,11.54
2023-04-16T09:31:35.626Z,11.56
2023-04-16T09:34:08.485Z,11.54
2023-04-16T09:36:35.900Z,11.64
2023-04-16T09:39:03.209Z,11.74
2023-04-16T09:41:35.109Z,11.80
2023-04-16T09:44:03.872Z,11.90
2023-04-16T09:46:41.045Z,11.90
2023-04-16T09:49:14.794Z,11.90
2023-04-16T09:51:43.089Z,11.80
2023-04-16T09:54:09.707Z,11.70
2023-04-16T09:56:41.970Z,11.60
2023-04-16T09:59:19.551Z,11.60
2023-04-16T10:02:13.968Z,11.70
2023-04-16T10:04:52.347Z,11.80
2023-04-16T10:07:18.920Z,11.76
2023-04-16T10:09:47.826Z,11.74
2023-04-16T10:12:14.867Z,11.70
2023-04-16T10:14:42.115Z,11.68
2023-04-16T10:17:09.288Z,11.62
2023-04-16T10:19:35.879Z,11.70
2023-04-16T10:22:02.845Z,11.72
2023-04-16T10:24:31.368Z,11.80
2023-04-16T10:26:59.148Z,11.80
2023-04-16T10:29:27.598Z,11.80
2023-04-16T10:31:57.500Z,11.80
2023-04-16T10:34:25.212Z,11.80
2023-04-16T10:36:53.262Z,11.80
2023-04-16T10:39:25.117Z,11.80
2023-04-16T10:42:08.330Z,11.74
2023-04-16T10:44:34.766Z,11.82
2023-04-16T10:47:00.645Z,11.98
2023-04-16T10:49:26.676Z,12.10
2023-04-16T10:51:58.221Z,12.10
2023-04-16T10:54:29.935Z,12.16
2023-04-16T10:56:59.109Z,12.20
2023-04-16T10:59:32.475Z,12.30
2023-04-16T11:02:01.177Z,12.30
2023-04-16T11:04:33.653Z,12.40
2023-04-16T11:07:15.608Z,12.40
2023-04-16T11:09:58.843Z,12.50
2023-04-16T11:12:36.779Z,12.50
2023-04-16T11:15:05.631Z,12.40
2023-04-16T11:17:46.720Z,12.40
2023-04-16T11:20:21.132Z,12.30
2023-04-16T11:22:49.105Z,12.50
2023-04-16T11:25:31.005Z,12.52
2023-04-16T11:27:58.313Z,12.60
2023-04-16T11:30:36.603Z,12.60
2023-04-16T11:33:08.905Z,12.60
2023-04-16T11:35:35.273Z,12.70
2023-04-16T11:38:01.613Z,12.60
2023-04-16T11:40:30.989Z,12.50
2023-04-16T11:43:12.652Z,12.50
2023-04-16T11:45:38.610Z,12.50
2023-04-16T11:48:04.762Z,12.40
2023-04-16T11:50:30.675Z,12.40
2023-04-16T11:53:03.597Z,12.40
2023-04-16T11:55:30.697Z,12.40
2023-04-16T11:57:56.682Z,12.40
2023-04-16T12:00:24.584Z,12.34
2023-04-16T12:02:54.171Z,12.30
2023-04-16T12:05:35.293Z,12.20
2023-04-16T12:08:10.588Z,12.28
2023-04-16T12:10:53.793Z,12.20
2023-04-16T12:13:19.907Z,12.22
2023-04-16T12:15:51.943Z,12.20
2023-04-16T12:18:20.777Z,12.30
2023-04-16T12:20:46.896Z,12.30
2023-04-16T12:23:42.018Z,12.30
2023-04-16T12:26:10.260Z,12.20
2023-04-16T12:28:37.849Z,12.10
2023-04-16T12:31:05.101Z,12.00
2023-04-16T12:33:31.578Z,11.90
2023-04-16T12:35:57.775Z,11.80
2023-04-16T12:38:24.894Z,11.80
2023-04-16T12:40:51.443Z,11.78
2023-04-16T12:43:19.031Z,11.80
2023-04-16T12:45:44.982Z,11.72
2023-04-16T12:48:10.893Z,11.70
2023-04-16T12:50:38.911Z,11.60
2023-04-16T12:53:04.906Z,11.64
2023-04-16T12:55:31.033Z,11.62
2023-04-16T12:57:57.058Z,11.70
2023-04-16T13:00:23.152Z,11.66
2023-04-16T13:02:49.091Z,11.70
2023-04-16T13:05:16.721Z,11.70
2023-04-16T13:07:42.787Z,11.70
2023-04-16T13:10:09.374Z,11.70
2023-04-16T13:12:35.414Z,11.70
2023-04-16T13:15:01.380Z,11.62
2023-04-16T13:17:27.707Z,11.60
2023-04-16T13:19:53.938Z,11.54
2023-04-16T13:22:20.118Z,11.50
2023-04-16T13:24:46.601Z,11.50
2023-04-16T13:27:15.398Z,11.40
2023-04-16T13:29:41.269Z,11.40
2023-04-16T13:32:07.231Z,11.30
2023-04-16T13:34:33.100Z,11.30
2023-04-16T13:36:59.000Z,11.30
2023-04-16T13:39:24.921Z,11.30
2023-04-16T13:41:50.795Z,11.30
2023-04-16T13:44:16.802Z,11.32
2023-04-16T13:46:46.935Z,11.34
2023-04-16T13:49:13.959Z,11.40
2023-04-16T13:51:43.534Z,11.40
2023-04-16T13:54:09.600Z,11.40
2023-04-16T13:56:35.610Z,11.40
2023-04-16T13:59:02.005Z,11.40
2023-04-16T14:01:28.081Z,11.40
2023-04-16T14:03:54.046Z,11.40
2023-04-16T14:06:20.563Z,11.40
2023-04-16T14:08:46.482Z,11.40
2023-04-16T14:11:12.403Z,11.50
2023-04-16T14:13:38.282Z,11.50
2023-04-16T14:16:04.720Z,11.42
2023-04-16T14:18:30.579Z,11.40
2023-04-16T14:20:58.079Z,11.40
2023-04-16T14:23:24.029Z,11.40
2023-04-16T14:25:49.933Z,11.42
2023-04-16T14:28:15.966Z,11.40
2023-04-16T14:30:41.866Z,11.50
2023-04-16T14:33:07.761Z,11.60
2023-04-16T14:35:33.752Z,11.60
2023-04-16T14:38:00.641Z,11.50
2023-04-16T14:40:26.582Z,11.50
2023-04-16T14:42:52.574Z,11.50
2023-04-16T14:45:18.484Z,11.50
2023-04-16T14:47:47.456Z,11.48
2023-04-16T14:50:14.900Z,11.44
2023-04-16T14:52:40.981Z,11.50
2023-04-16T14:55:07.386Z,11.50
2023-04-16T14:57:33.366Z,11.60
2023-04-16T14:59:59.224Z,11.60
2023-04-16T15:02:25.479Z,11.50
2023-04-16T15:04:51.619Z,11.50
2023-04-16T15:07:17.603Z,11.50
2023-04-16T15:09:43.502Z,11.40
2023-04-16T15:12:09.784Z,11.40
2023-04-16T15:14:35.719Z,11.30
2023-04-16T15:17:01.649Z,11.30
2023-04-16T15:19:27.657Z,11.20
2023-04-16T15:21:55.141Z,11.20
2023-04-16T15:24:21.018Z,11.20
2023-04-16T15:26:46.938Z,11.20
2023-04-16T15:29:12.840Z,11.30
2023-04-16T15:31:38.835Z,11.20
2023-04-16T15:34:04.752Z,11.20
2023-04-16T15:36:31.041Z,11.10
2023-04-16T15:38:56.943Z,11.10
2023-04-16T15:41:23.808Z,11.10
2023-04-16T15:43:50.751Z,11.10
2023-04-16T15:46:16.749Z,11.10
2023-04-16T15:48:42.646Z,11.10
2023-04-16T15:51:08.988Z,11.20
2023-04-16T15:53:34.982Z,11.10
2023-04-16T15:56:01.025Z,11.00
2023-04-16T15:58:27.045Z,11.00
2023-04-16T16:00:53.052Z,11.00
2023-04-16T16:03:20.956Z,11.00
2023-04-16T16:05:47.497Z,11.10
2023-04-16T16:08:14.792Z,11.10
2023-04-16T16:10:41.710Z,11.00
2023-04-16T16:13:12.273Z,11.00
2023-04-16T16:15:41.783Z,11.00
2023-04-16T16:18:07.767Z,11.00
2023-04-16T16:20:34.341Z,11.00
2023-04-16T16:23:00.833Z,10.90
2023-04-16T16:25:26.835Z,10.80
2023-04-16T16:27:52.978Z,10.70
2023-04-16T16:30:19.091Z,10.70
2023-04-16T16:32:45.129Z,10.70
2023-04-16T16:35:12.622Z,10.70
2023-04-16T16:37:38.679Z,10.60
2023-04-16T16:40:05.489Z,10.52
2023-04-16T16:42:32.062Z,10.50
2023-04-16T16:44:58.058Z,10.50
2023-04-16T16:47:24.239Z,10.50
2023-04-16T16:49:50.817Z,10.40
2023-04-16T16:52:16.753Z,10.40
2023-04-16T16:54:42.661Z,10.40
2023-04-16T16:57:08.571Z,10.40
2023-04-16T16:59:34.493Z,10.36
2023-04-16T17:02:00.513Z,10.30
2023-04-16T17:04:26.564Z,10.30
2023-04-16T17:06:52.521Z,10.30
2023-04-16T17:09:18.510Z,10.30
2023-04-16T17:11:44.538Z,10.30
2023-04-16T17:14:10.471Z,10.20
2023-04-16T17:16:36.382Z,10.10
2023-04-16T17:19:02.395Z,10.10
2023-04-16T17:21:28.514Z,10.10
2023-04-16T17:23:54.392Z,10.00
2023-04-16T17:26:20.292Z,9.90
2023-04-16T17:28:46.218Z,9.90
2023-04-16T17:31:12.130Z,9.80
2023-04-16T17:33:38.025Z,9.80
2023-04-16T17:36:04.803Z,9.74
2023-04-16T17:38:30.781Z,9.70
2023-04-16T17:40:57.285Z,9.70
2023-04-16T17:43:23.498Z,9.66
2023-04-16T17:45:49.671Z,9.60
2023-04-16T17:48:15.628Z,9.60
2023-04-16T17:50:41.672Z,9.50
2023-04-16T17:53:07.595Z,9.50
2023-04-16T17:55:33.765Z,9.40
2023-04-16T17:58:00.094Z,9.40
2023-04-16T18:00:26.006Z,9.30
2023-04-16T18:02:51.959Z,9.30
2023-04-16T18:05:19.119Z,9.30
2023-04-16T18:07:46.681Z,9.24
2023-04-16T18:10:12.674Z,9.20
2023-04-16T18:12:38.618Z,9.20
2023-04-16T18:15:06.454Z,9.20
2023-04-16T18:17:32.476Z,9.20
2023-04-16T18:19:58.366Z,9.28
2023-04-16T18:22:26.340Z,9.30
2023-04-16T18:24:54.365Z,9.30
2023-04-16T18:27:21.423Z,9.30
2023-04-16T18:29:49.373Z,9.30
2023-04-16T18:32:15.633Z,9.30
2023-04-16T18:34:41.710Z,9.30
2023-04-16T18:37:07.754Z,9.30
2023-04-16T18:39:33.793Z,9.38
2023-04-16T18:42:00.747Z,9.40
2023-04-16T18:44:26.685Z,9.40
2023-04-16T18:46:52.696Z,9.40
2023-04-16T18:49:18.676Z,9.40
2023-04-16T18:51:44.712Z,9.40
2023-04-16T18:54:10.592Z,9.38
2023-04-16T18:56:36.508Z,9.30
2023-04-16T18:59:02.449Z,9.30
2023-04-16T19:01:28.404Z,9.30
2023-04-16T19:03:54.766Z,9.30
2023-04-16T19:06:20.718Z,9.30
2023-04-16T19:08:46.672Z,9.30
2023-04-16T19:11:12.518Z,9.30
2023-04-16T19:13:38.575Z,9.30
2023-04-16T19:16:10.505Z,9.30
2023-04-16T19:18:38.129Z,9.30
2023-04-16T19:21:04.944Z,9.30
2023-04-16T19:23:30.792Z,9.30
2023-04-16T19:25:57.228Z,9.30
2023-04-16T19:28:26.621Z,9.30
2023-04-16T19:30:53.685Z,9.24
2023-04-16T19:33:19.770Z,9.20
2023-04-16T19:35:46.625Z,9.20
2023-04-16T19:38:12.561Z,9.20
2023-04-16T19:40:39.333Z,9.20
2023-04-16T19:43:05.869Z,9.18
2023-04-16T19:45:31.900Z,9.10
2023-04-16T19:47:58.455Z,9.10
2023-04-16T19:50:24.448Z,9.10
2023-04-16T19:52:51.146Z,9.10
2023-04-16T19:55:18.633Z,9.06
2023-04-16T19:57:47.149Z,9.06
2023-04-16T20:00:13.788Z,9.02
2023-04-16T20:02:39.939Z,9.04
2023-04-16T20:05:06.813Z,9.00
2023-04-16T20:07:32.912Z,9.00
2023-04-16T20:09:58.775Z,9.00
2023-04-16T20:12:24.650Z,9.00
2023-04-16T20:14:50.702Z,8.92
2023-04-16T20:17:19.601Z,8.90
2023-04-16T20:19:48.753Z,8.80
2023-04-16T20:22:17.578Z,8.80
2023-04-16T20:24:47.319Z,8.80
2023-04-16T20:27:14.249Z,8.72
2023-04-16T20:29:40.778Z,8.70
2023-04-16T20:32:06.673Z,8.70
2023-04-16T20:34:32.640Z,8.60
2023-04-16T20:36:58.484Z,8.60
2023-04-16T20:39:25.806Z,8.60
2023-04-16T20:41:55.934Z,8.60
2023-04-16T20:44:25.710Z,8.60
2023-04-16T20:46:56.435Z,8.60
2023-04-16T20:49:25.066Z,8.56
2023-04-16T20:51:51.197Z,8.50
2023-04-16T20:54:17.131Z,8.52
2023-04-16T20:56:44.044Z,8.58
2023-04-16T20:59:12.813Z,8.56
2023-04-16T21:01:38.986Z,8.50
2023-04-16T21:04:05.914Z,8.50
2023-04-16T21:06:33.284Z,8.50
2023-04-16T21:08:59.114Z,8.50
2023-04-16T21:11:25.575Z,8.50
2023-04-16T21:13:51.415Z,8.40
2023-04-16T21:16:17.903Z,8.40
2023-04-16T21:18:44.413Z,8.40
2023-04-16T21:21:10.330Z,8.40
2023-04-16T21:23:36.218Z,8.40
2023-04-16T21:26:02.156Z,8.40
2023-04-16T21:28:28.784Z,8.40
2023-04-16T21:30:54.707Z,8.40
2023-04-16T21:33:20.633Z,8.40
2023-04-16T21:35:53.729Z,8.40
2023-04-16T21:38:20.867Z,8.40
2023-04-16T21:40:52.890Z,8.40
2023-04-16T21:43:19.602Z,8.40
2023-04-16T21:45:45.770Z,8.46
2023-04-16T21:48:11.778Z,8.50
2023-04-16T21:50:38.163Z,8.50
2023-04-16T21:53:05.768Z,8.50
2023-04-16T21:55:35.526Z,8.50
2023-04-16T21:58:03.033Z,8.50
2023-04-16T22:00:29.102Z,8.50
2023-04-16T22:02:55.275Z,8.42
2023-04-16T22:05:23.433Z,8.40
2023-04-16T22:07:50.396Z,8.40
2023-04-16T22:10:16.374Z,8.36
2023-04-16T22:12:46.076Z,8.30
2023-04-16T22:15:12.945Z,8.30
2023-04-16T22:17:39.834Z,8.30
2023-04-16T22:20:13.595Z,8.30
2023-04-16T22:22:41.118Z,8.30
2023-04-16T22:25:07.719Z,8.24
2023-04-16T22:27:33.737Z,8.20
2023-04-16T22:29:59.676Z,8.20
2023-04-16T22:32:25.778Z,8.20
2023-04-16T22:34:51.777Z,8.20
2023-04-16T22:37:17.780Z,8.20
2023-04-16T22:39:43.710Z,8.10
2023-04-16T22:42:09.701Z,8.10
2023-04-16T22:44:36.182Z,8.10
2023-04-16T22:47:02.158Z,8.10
2023-04-16T22:49:34.345Z,8.10
2023-04-16T22:52:00.493Z,8.04
2023-04-16T22:54:31.177Z,8.00
2023-04-16T22:56:57.807Z,8.00
2023-04-16T22:59:25.256Z,8.00
2023-04-16T23:01:52.032Z,8.00
2023-04-16T23:04:18.264Z,7.92
2023-04-16T23:06:44.160Z,7.90
2023-04-16T23:09:10.440Z,7.90
2023-04-16T23:11:36.669Z,7.90
2023-04-16T23:14:04.440Z,7.90
2023-04-16T23:16:30.497Z,7.90
2023-04-16T23:18:56.414Z,7.80
2023-04-16T23:21:22.407Z,7.80
2023-04-16T23:23:48.424Z,7.72
2023-04-16T23:26:14.768Z,7.70
2023-04-16T23:28:40.725Z,7.70
2023-04-16T23:31:07.355Z,7.60
2023-04-16T23:33:33.600Z,7.60
2023-04-16T23:35:59.647Z,7.50
2023-04-16T23:38:25.661Z,7.50
2023-04-16T23:40:51.548Z,7.40
2023-04-16T23:43:17.392Z,7.40
2023-04-16T23:45:43.293Z,7.40
2023-04-16T23:48:09.394Z,7.40
2023-04-16T23:50:35.317Z,7.40
2023-04-16T23:53:01.255Z,7.40
2023-04-16T23:55:27.162Z,7.40
2023-04-16T23:57:53.044Z,7.40
